Time;durP1;ratioP1;P1;durP2;ratioP2;P2;SDS_P1;SDS_P2;PMS_P1;PMS_P2;Temp;Humidity;BMP_temperature;BMP_pressure;BME280_temperature;BME280_humidity;BME280_pressure;Samples;Min_cycle;Max_cycle;Signal;HPM_P1;HPM_P2
2022/08/31 00:04:25;;;;;;;2.50;2.30;;;24.30;72.70;;;;;;5043647;28;20458;-56
2022/08/31 00:06:53;;;;;;;3.50;3.17;;;24.30;74.80;;;;;;5051597;28;20547;-56
2022/08/31 00:09:20;;;;;;;3.13;2.93;;;24.30;76.10;;;;;;5053522;28;20534;-58
2022/08/31 00:11:47;;;;;;;2.90;2.70;;;24.30;76.10;;;;;;5053536;28;20487;-58
2022/08/31 00:14:14;;;;;;;4.70;2.40;;;24.30;75.50;;;;;;5053569;28;20531;-58
2022/08/31 00:16:45;;;;;;;3.07;2.80;;;24.30;75.40;;;;;;5053326;28;20460;-59
2022/08/31 00:19:12;;;;;;;2.50;2.30;;;24.20;75.30;;;;;;5046574;28;20541;-58
2022/08/31 00:21:40;;;;;;;2.83;2.73;;;24.20;74.90;;;;;;5033384;28;20508;-61
2022/08/31 00:24:08;;;;;;;3.57;3.37;;;24.20;75.00;;;;;;5033613;28;20481;-56
2022/08/31 00:26:36;;;;;;;2.40;2.30;;;24.20;74.80;;;;;;5033230;28;20469;-58
2022/08/31 00:29:03;;;;;;;2.70;2.50;;;24.20;76.40;;;;;;5033369;28;20525;-59
2022/08/31 00:31:30;;;;;;;4.03;3.60;;;24.20;76.80;;;;;;5033221;28;20481;-56
2022/08/31 00:33:57;;;;;;;5.70;2.73;;;24.20;77.70;;;;;;5033176;28;20528;-57
2022/08/31 00:38:55;;;;;;;3.30;3.03;;;24.20;78.60;;;;;;5051492;28;20511;-63
2022/08/31 00:41:25;;;;;;;3.23;2.93;;;24.20;80.60;;;;;;5052761;28;20476;-64
2022/08/31 00:43:55;;;;;;;2.43;2.33;;;24.20;80.20;;;;;;5053030;28;20809;-64
2022/08/31 00:46:24;;;;;;;3.50;3.20;;;24.20;80.10;;;;;;5052861;28;20814;-64
2022/08/31 00:48:58;;;;;;;2.57;2.37;;;24.20;81.30;;;;;;5052985;28;21069;-64
2022/08/31 00:51:27;;;;;;;2.50;2.33;;;24.20;82.70;;;;;;5052530;28;20892;-64
2022/08/31 00:53:54;;;;;;;2.83;2.63;;;24.20;82.90;;;;;;5053051;28;20484;-64
2022/08/31 00:56:23;;;;;;;2.80;2.60;;;24.20;83.70;;;;;;5052900;28;20527;-64
2022/08/31 00:58:51;;;;;;;2.50;2.30;;;24.20;83.40;;;;;;5052480;28;20531;-64
2022/08/31 01:01:19;;;;;;;3.00;2.80;;;24.20;83.40;;;;;;5052606;28;20491;-64
2022/08/31 01:03:46;;;;;;;2.73;2.60;;;24.20;83.00;;;;;;5052059;28;20440;-64
2022/08/31 01:06:13;;;;;;;3.00;2.70;;;24.20;82.70;;;;;;5052573;28;20447;-64
2022/08/31 01:08:40;;;;;;;3.37;3.10;;;24.30;82.50;;;;;;5051976;28;20556;-64
2022/08/31 01:11:08;;;;;;;2.93;2.73;;;24.30;83.60;;;;;;5052595;28;20905;-64
2022/08/31 01:13:36;;;;;;;3.20;2.80;;;24.20;83.80;;;;;;5052436;28;21024;-63
2022/08/31 01:16:07;;;;;;;2.60;2.40;;;24.20;83.90;;;;;;5052504;28;20522;-63
2022/08/31 01:18:35;;;;;;;3.10;2.87;;;24.20;83.60;;;;;;5052230;28;20902;-64
2022/08/31 01:21:17;;;;;;;2.93;2.73;;;24.20;82.70;;;;;;5051786;28;20847;-63
2022/08/31 01:23:45;;;;;;;2.57;2.47;;;24.20;82.00;;;;;;5052265;28;20853;-63
2022/08/31 01:26:17;;;;;;;2.40;2.30;;;24.20;81.50;;;;;;5052226;28;20454;-63
2022/08/31 01:28:44;;;;;;;2.93;2.63;;;24.20;81.80;;;;;;5051689;28;20492;-64
2022/08/31 01:31:21;;;;;;;4.43;3.13;;;24.20;82.20;;;;;;5052142;28;20523;-64
2022/08/31 01:33:49;;;;;;;2.80;2.60;;;24.10;81.90;;;;;;5051883;28;20923;-64
2022/08/31 01:36:17;;;;;;;2.40;2.20;;;24.10;81.60;;;;;;5052339;28;20476;-64
2022/08/31 01:38:45;;;;;;;3.10;2.83;;;24.10;81.30;;;;;;5051653;28;20945;-64
2022/08/31 01:41:12;;;;;;;2.23;2.13;;;24.10;81.00;;;;;;5050922;28;20539;-64
2022/08/31 01:43:39;;;;;;;2.80;2.60;;;24.10;80.70;;;;;;5050478;28;20705;-61
2022/08/31 01:46:08;;;;;;;2.70;2.60;;;24.10;80.20;;;;;;5050035;28;20483;-63
2022/08/31 01:48:36;;;;;;;2.80;2.60;;;24.00;79.80;;;;;;5049547;28;20551;-63
2022/08/31 01:51:04;;;;;;;2.93;2.57;;;24.00;79.20;;;;;;5050153;28;20475;-60
2022/08/31 01:53:33;;;;;;;2.90;2.57;;;24.00;78.50;;;;;;5050324;28;20519;-62
2022/08/31 01:56:01;;;;;;;2.60;2.50;;;24.00;78.40;;;;;;5050122;28;20502;-64
2022/08/31 01:58:28;;;;;;;2.70;2.57;;;24.00;78.10;;;;;;5049939;28;20522;-63
2022/08/31 02:00:55;;;;;;;2.40;2.23;;;24.00;77.60;;;;;;5050763;28;20515;-62
2022/08/31 02:03:22;;;;;;;3.27;3.07;;;24.00;77.40;;;;;;5051339;28;21045;-65
2022/08/31 02:05:49;;;;;;;2.83;2.63;;;23.90;77.10;;;;;;5051474;28;20985;-63
2022/08/31 02:08:16;;;;;;;2.53;2.33;;;23.90;76.70;;;;;;5051466;28;20559;-63
2022/08/31 02:10:43;;;;;;;2.90;2.50;;;23.90;76.60;;;;;;5051315;28;20531;-63
2022/08/31 02:13:11;;;;;;;3.13;2.80;;;23.90;77.00;;;;;;5051522;28;20452;-61
2022/08/31 02:15:39;;;;;;;2.27;2.17;;;23.90;77.00;;;;;;5054591;28;20440;-62
2022/08/31 02:18:06;;;;;;;1.93;1.83;;;23.90;76.80;;;;;;5055290;28;20515;-63
2022/08/31 02:20:33;;;;;;;1.90;1.80;;;23.90;76.70;;;;;;5055309;28;20498;-64
2022/08/31 02:23:02;;;;;;;2.07;1.97;;;23.90;76.50;;;;;;5055439;28;20535;-63
2022/08/31 02:25:29;;;;;;;2.27;2.17;;;23.80;76.10;;;;;;5055435;28;20448;-63
2022/08/31 02:27:56;;;;;;;2.20;2.10;;;23.90;76.00;;;;;;5055063;28;20492;-62
2022/08/31 02:30:25;;;;;;;2.90;2.70;;;23.90;76.40;;;;;;5055309;28;20867;-62
2022/08/31 02:32:52;;;;;;;2.37;2.27;;;23.80;76.40;;;;;;5055371;28;20540;-61
2022/08/31 02:35:19;;;;;;;2.50;2.30;;;23.80;76.60;;;;;;5054973;28;20440;-63
2022/08/31 02:37:45;;;;;;;2.60;2.40;;;23.80;76.60;;;;;;5055168;28;20551;-63
2022/08/31 02:40:13;;;;;;;1.80;1.70;;;23.80;76.30;;;;;;5055035;28;20790;-62
2022/08/31 02:42:40;;;;;;;2.40;2.30;;;23.80;76.30;;;;;;5055118;28;20511;-63
2022/08/31 02:45:08;;;;;;;2.00;1.90;;;23.80;76.90;;;;;;5055040;28;20531;-62
2022/08/31 02:47:36;;;;;;;2.30;2.20;;;23.80;77.00;;;;;;5055048;28;20502;-63
2022/08/31 02:50:07;;;;;;;2.27;2.17;;;23.90;77.00;;;;;;5054784;28;20476;-63
2022/08/31 02:52:35;;;;;;;2.00;1.90;;;23.80;76.70;;;;;;5054456;28;20975;-63
2022/08/31 02:55:02;;;;;;;2.03;1.97;;;23.80;77.00;;;;;;5055087;28;20531;-64
2022/08/31 02:57:29;;;;;;;3.10;2.80;;;23.80;76.90;;;;;;5054859;28;20547;-63
2022/08/31 02:59:55;;;;;;;4.70;2.50;;;23.80;76.70;;;;;;5054677;28;20532;-63
2022/08/31 03:02:24;;;;;;;1.93;1.83;;;23.90;76.90;;;;;;5054746;28;20515;-64
2022/08/31 03:04:52;;;;;;;2.17;1.97;;;23.80;77.00;;;;;;5054749;28;20448;-63
2022/08/31 03:07:19;;;;;;;7.87;1.97;;;23.80;77.70;;;;;;5054825;28;20496;-64
2022/08/31 03:09:46;;;;;;;2.00;1.90;;;23.80;78.00;;;;;;5054362;28;20448;-64
2022/08/31 03:12:13;;;;;;;1.73;1.73;;;23.80;77.90;;;;;;5054637;28;20493;-63
2022/08/31 03:14:40;;;;;;;2.00;1.73;;;23.80;77.70;;;;;;5054710;28;20539;-62
2022/08/31 03:17:07;;;;;;;2.37;2.17;;;23.80;78.00;;;;;;5056272;28;20551;-63
2022/08/31 03:19:34;;;;;;;2.20;1.67;;;23.80;78.40;;;;;;5054344;28;20535;-61
2022/08/31 03:22:02;;;;;;;2.20;2.03;;;23.80;78.70;;;;;;5054283;28;20480;-61
2022/08/31 03:24:30;;;;;;;1.93;1.83;;;23.90;78.80;;;;;;5054132;28;20516;-62
2022/08/31 03:26:58;;;;;;;1.67;1.57;;;23.80;79.60;;;;;;5053138;28;20470;-63
2022/08/31 03:29:25;;;;;;;2.17;1.97;;;23.80;79.70;;;;;;5054265;28;20494;-63
2022/08/31 03:31:52;;;;;;;2.23;2.13;;;23.80;80.00;;;;;;5054214;28;20523;-63
2022/08/31 03:34:19;;;;;;;2.30;2.20;;;23.80;80.50;;;;;;5053742;28;20531;-63
2022/08/31 03:36:46;;;;;;;2.30;2.20;;;23.80;80.40;;;;;;5053909;28;20496;-63
2022/08/31 03:39:14;;;;;;;2.40;2.20;;;23.80;80.40;;;;;;5053987;28;20471;-61
2022/08/31 03:41:41;;;;;;;1.87;1.77;;;23.80;80.60;;;;;;5053638;28;20537;-64
2022/08/31 03:44:08;;;;;;;2.03;1.93;;;23.80;80.60;;;;;;5054009;28;20480;-63
2022/08/31 03:46:35;;;;;;;2.10;2.00;;;23.80;81.00;;;;;;5053898;28;20536;-62
2022/08/31 03:49:02;;;;;;;5.90;2.83;;;23.80;81.30;;;;;;5053801;28;20440;-61
2022/08/31 03:51:30;;;;;;;2.27;2.07;;;23.80;81.70;;;;;;5053729;28;20478;-60
2022/08/31 03:53:57;;;;;;;2.10;2.00;;;23.80;81.30;;;;;;5053934;28;20501;-61
2022/08/31 03:56:25;;;;;;;6.33;2.30;;;23.80;81.80;;;;;;5053668;28;20476;-64
2022/08/31 03:58:52;;;;;;;2.77;2.67;;;23.80;81.90;;;;;;5053488;28;20972;-61
2022/08/31 04:01:19;;;;;;;2.63;2.47;;;23.90;82.20;;;;;;5053612;28;20600;-63
2022/08/31 04:03:46;;;;;;;2.70;2.50;;;23.80;82.30;;;;;;5053614;28;20536;-63
2022/08/31 04:06:13;;;;;;;2.70;2.50;;;23.80;82.60;;;;;;5053644;28;20869;-63
2022/08/31 04:08:41;;;;;;;2.50;2.40;;;23.80;82.90;;;;;;5053311;28;21036;-63
2022/08/31 04:11:11;;;;;;;2.63;2.43;;;23.80;83.00;;;;;;5053357;28;20790;-64
2022/08/31 04:13:41;;;;;;;2.07;1.97;;;23.80;83.00;;;;;;5053816;28;20448;-63
2022/08/31 04:16:11;;;;;;;2.27;2.17;;;23.80;82.60;;;;;;5053105;28;20539;-64
2022/08/31 04:18:38;;;;;;;2.43;2.33;;;23.80;82.60;;;;;;5053167;28;20487;-61
2022/08/31 04:21:10;;;;;;;2.10;2.00;;;23.80;82.50;;;;;;5053264;28;20965;-63
2022/08/31 04:23:39;;;;;;;2.33;2.23;;;23.80;82.40;;;;;;5053271;28;20484;-63
2022/08/31 04:26:06;;;;;;;2.80;2.60;;;23.80;82.40;;;;;;5053365;28;20757;-63
2022/08/31 04:28:33;;;;;;;5.60;2.83;;;23.80;82.20;;;;;;5053044;28;20466;-63
2022/08/31 04:31:07;;;;;;;2.23;2.13;;;23.80;82.20;;;;;;5052745;28;20890;-64
2022/08/31 04:33:35;;;;;;;2.10;2.00;;;23.80;82.90;;;;;;5033160;28;20778;-63
2022/08/31 04:36:05;;;;;;;2.57;2.47;;;23.80;82.30;;;;;;5033450;28;20519;-63
2022/08/31 04:38:33;;;;;;;2.37;2.27;;;23.80;82.50;;;;;;5032479;28;20560;-64
2022/08/31 04:41:04;;;;;;;2.43;2.33;;;23.70;82.50;;;;;;5032868;28;20524;-64
2022/08/31 04:43:31;;;;;;;1.80;1.70;;;23.70;82.50;;;;;;5032952;28;20449;-63
2022/08/31 04:45:58;;;;;;;3.80;2.97;;;23.70;82.40;;;;;;5033013;28;20535;-61
2022/08/31 04:48:27;;;;;;;4.57;2.47;;;23.80;82.50;;;;;;5042841;28;20503;-64
2022/08/31 04:51:00;;;;;;;8.17;4.03;;;23.80;83.20;;;;;;5052510;28;20491;-63
2022/08/31 04:53:28;;;;;;;10.07;4.20;;;23.80;88.20;;;;;;5052473;28;20436;-63
2022/08/31 04:55:55;;;;;;;9.33;4.00;;;23.80;92.80;;;;;;5052673;28;20481;-61
2022/08/31 04:58:22;;;;;;;8.07;3.73;;;23.70;93.20;;;;;;5051020;28;20463;-66
2022/08/31 05:00:50;;;;;;;13.03;4.77;;;23.70;92.40;;;;;;5032334;28;20449;-66
2022/08/31 05:03:17;;;;;;;6.90;3.70;;;23.70;91.80;;;;;;5032502;28;20950;-66
2022/08/31 05:05:48;;;;;;;6.93;3.13;;;23.80;91.30;;;;;;5032535;28;20868;-66
2022/08/31 05:08:15;;;;;;;6.20;3.50;;;23.80;91.00;;;;;;5032508;28;20461;-66
2022/08/31 05:10:42;;;;;;;5.87;2.80;;;23.80;90.60;;;;;;5032187;28;20451;-66
2022/08/31 05:13:09;;;;;;;4.40;3.53;;;23.80;90.00;;;;;;5032204;28;20493;-66
2022/08/31 05:15:40;;;;;;;5.30;2.80;;;23.80;89.40;;;;;;5032567;28;20929;-66
2022/08/31 05:18:07;;;;;;;4.33;2.60;;;23.80;88.50;;;;;;5032481;28;20469;-66
2022/08/31 05:20:34;;;;;;;6.63;3.60;;;23.80;87.90;;;;;;5032091;28;20544;-66
2022/08/31 05:23:02;;;;;;;2.73;2.53;;;23.80;87.30;;;;;;5032289;28;20613;-66
2022/08/31 05:25:29;;;;;;;2.53;2.33;;;23.90;86.90;;;;;;5032159;28;20480;-66
2022/08/31 05:27:56;;;;;;;3.77;2.50;;;23.90;86.40;;;;;;5032097;28;20495;-66
2022/08/31 05:30:23;;;;;;;4.63;2.10;;;23.90;85.90;;;;;;5031761;28;20528;-66
2022/08/31 05:32:50;;;;;;;2.33;2.00;;;23.90;85.40;;;;;;5032007;28;20973;-66
2022/08/31 05:35:17;;;;;;;2.43;2.23;;;23.90;85.10;;;;;;5032118;28;20893;-66
2022/08/31 05:37:44;;;;;;;1.80;1.70;;;23.80;84.60;;;;;;5031792;28;20552;-66
2022/08/31 05:40:12;;;;;;;4.20;2.20;;;23.90;84.40;;;;;;5031755;28;20445;-66
2022/08/31 05:42:39;;;;;;;2.10;1.90;;;23.90;84.00;;;;;;5032175;28;20567;-66
2022/08/31 05:45:07;;;;;;;2.40;2.20;;;23.90;83.80;;;;;;5031977;28;20445;-65
2022/08/31 05:47:34;;;;;;;2.60;2.40;;;23.90;83.60;;;;;;5031729;28;20492;-65
2022/08/31 05:50:01;;;;;;;5.50;3.20;;;23.90;83.40;;;;;;5031037;28;20451;-65
2022/08/31 05:52:28;;;;;;;1.90;1.80;;;23.90;83.10;;;;;;5031939;28;20864;-66
2022/08/31 05:54:55;;;;;;;2.00;1.90;;;23.90;82.90;;;;;;5032570;28;20985;-66
2022/08/31 05:57:23;;;;;;;2.77;2.07;;;23.90;82.60;;;;;;5032496;28;20465;-65
2022/08/31 05:59:50;;;;;;;3.60;2.13;;;23.90;82.20;;;;;;5031905;28;20447;-65
2022/08/31 06:02:17;;;;;;;1.90;1.80;;;23.90;81.90;;;;;;5032658;28;20559;-65
2022/08/31 06:04:44;;;;;;;1.83;1.73;;;23.90;81.60;;;;;;5031834;28;20527;-66
2022/08/31 06:07:11;;;;;;;1.70;1.70;;;23.90;81.50;;;;;;5031767;28;20823;-66
2022/08/31 06:09:38;;;;;;;1.90;1.80;;;23.90;81.70;;;;;;5031621;28;21009;-66
2022/08/31 06:12:05;;;;;;;2.70;1.70;;;23.90;81.60;;;;;;5031782;28;20448;-66
2022/08/31 06:14:34;;;;;;;3.33;2.20;;;23.80;81.50;;;;;;5032050;28;20441;-66
2022/08/31 06:17:00;;;;;;;2.33;2.23;;;23.80;81.40;;;;;;5032037;28;20463;-66
2022/08/31 06:19:27;;;;;;;2.07;1.97;;;23.80;81.40;;;;;;5031895;28;20480;-66
2022/08/31 06:21:56;;;;;;;4.53;2.10;;;23.80;81.50;;;;;;5031820;28;20515;-66
2022/08/31 06:24:23;;;;;;;5.30;2.33;;;23.80;81.50;;;;;;5031740;28;20437;-66
2022/08/31 06:26:55;;;;;;;2.80;1.90;;;23.80;81.50;;;;;;5031500;28;20497;-66
2022/08/31 06:29:22;;;;;;;1.73;1.60;;;23.80;81.70;;;;;;5031446;28;20540;-66
2022/08/31 06:31:50;;;;;;;1.73;1.63;;;23.80;81.90;;;;;;5031579;28;20449;-66
2022/08/31 06:34:19;;;;;;;1.67;1.57;;;23.80;82.70;;;;;;5031563;28;20483;-66
2022/08/31 06:39:12;;;;;;;4.67;2.00;;;23.80;82.10;;;;;;5039174;22;20761;-63
2022/08/31 06:41:40;;;;;;;1.80;1.70;;;23.80;82.00;;;;;;5031240;28;20211;-62
2022/08/31 06:44:09;;;;;;;2.23;2.03;;;23.70;81.90;;;;;;5031340;28;20449;-63
2022/08/31 06:46:37;;;;;;;2.07;1.67;;;23.70;82.00;;;;;;5031218;28;20445;-64
2022/08/31 06:49:06;;;;;;;3.20;1.80;;;23.70;81.90;;;;;;5031263;28;20472;-63
2022/08/31 06:51:36;;;;;;;1.90;1.60;;;23.70;81.90;;;;;;5031240;28;20445;-63
2022/08/31 06:54:05;;;;;;;1.73;1.63;;;23.70;82.00;;;;;;5031129;28;20861;-63
2022/08/31 06:56:33;;;;;;;5.20;1.93;;;23.70;82.20;;;;;;5031189;28;20464;-64
2022/08/31 06:59:00;;;;;;;3.67;1.87;;;23.70;82.40;;;;;;5030962;28;20456;-64
2022/08/31 07:01:29;;;;;;;2.57;1.50;;;23.70;82.60;;;;;;5033515;28;20541;-61
2022/08/31 07:03:58;;;;;;;2.47;1.70;;;23.70;82.60;;;;;;5034742;28;20580;-62
2022/08/31 07:06:28;;;;;;;2.23;1.90;;;23.70;82.70;;;;;;5034780;28;20477;-62
2022/08/31 07:08:58;;;;;;;2.30;2.10;;;23.70;82.80;;;;;;5034754;28;20461;-63
2022/08/31 07:11:28;;;;;;;1.90;1.80;;;23.70;83.00;;;;;;5034614;28;20447;-63
2022/08/31 07:13:56;;;;;;;1.93;1.83;;;23.70;83.00;;;;;;5034664;28;20528;-63
2022/08/31 07:16:25;;;;;;;1.87;1.77;;;23.70;83.10;;;;;;5034600;28;20445;-63
2022/08/31 07:18:53;;;;;;;2.27;2.17;;;23.70;83.20;;;;;;5034265;28;20544;-63
2022/08/31 07:21:24;;;;;;;1.77;1.70;;;23.70;83.30;;;;;;5034458;28;20445;-63
2022/08/31 07:23:53;;;;;;;2.10;2.00;;;23.70;83.20;;;;;;5034428;28;20480;-62
2022/08/31 07:26:24;;;;;;;1.73;1.63;;;23.70;83.10;;;;;;5034399;28;20441;-63
2022/08/31 07:28:52;;;;;;;1.47;1.43;;;23.70;83.10;;;;;;5034129;28;20535;-63
2022/08/31 07:31:21;;;;;;;2.03;1.50;;;23.70;83.20;;;;;;5034196;28;20456;-62
2022/08/31 07:33:49;;;;;;;6.33;2.57;;;23.70;83.20;;;;;;5034205;28;20481;-61
2022/08/31 07:36:16;;;;;;;2.20;2.10;;;23.70;83.20;;;;;;5034453;28;20528;-63
2022/08/31 07:44:15;;;;;;;2.03;1.93;;;23.70;83.20;;;;;;5034216;28;20475;-62
2022/08/31 07:46:44;;;;;;;2.27;2.10;;;23.70;83.30;;;;;;5034006;28;20545;-63
2022/08/31 07:49:12;;;;;;;4.93;2.77;;;23.70;83.30;;;;;;5033900;28;20528;-63
2022/08/31 07:51:44;;;;;;;2.40;2.30;;;23.70;83.30;;;;;;5033818;28;20464;-61
2022/08/31 07:54:12;;;;;;;1.87;1.77;;;23.70;83.20;;;;;;5033691;28;20445;-63
2022/08/31 07:56:40;;;;;;;2.67;2.37;;;23.70;83.20;;;;;;5033853;28;20468;-63
2022/08/31 07:59:07;;;;;;;2.50;2.30;;;23.70;83.00;;;;;;5033531;28;20527;-61
2022/08/31 08:01:36;;;;;;;2.90;2.67;;;23.70;82.90;;;;;;5033738;28;20536;-63
2022/08/31 08:04:05;;;;;;;2.20;1.77;;;23.70;82.90;;;;;;5033657;28;20491;-61
2022/08/31 08:06:32;;;;;;;2.00;1.90;;;23.70;82.90;;;;;;5033717;28;20453;-63
2022/08/31 08:09:05;;;;;;;3.30;3.10;;;23.70;83.00;;;;;;5033589;28;20555;-63
2022/08/31 08:11:34;;;;;;;2.43;2.20;;;23.70;83.00;;;;;;5033570;28;20468;-63
2022/08/31 08:14:03;;;;;;;2.33;2.00;;;23.70;83.00;;;;;;5033132;28;20524;-64
2022/08/31 08:16:30;;;;;;;2.00;1.87;;;23.70;83.20;;;;;;5033476;28;20845;-63
2022/08/31 08:18:57;;;;;;;2.87;2.37;;;23.70;83.20;;;;;;5033223;28;20903;-63
2022/08/31 08:21:24;;;;;;;2.10;2.00;;;23.70;83.40;;;;;;5033245;28;20536;-61
2022/08/31 08:23:51;;;;;;;2.77;2.13;;;23.70;83.40;;;;;;5033390;28;20913;-63
2022/08/31 08:26:18;;;;;;;2.10;2.00;;;23.70;83.50;;;;;;5033285;28;20489;-63
2022/08/31 08:28:45;;;;;;;1.60;1.60;;;23.70;83.60;;;;;;5033009;28;20468;-63
2022/08/31 08:31:14;;;;;;;2.73;2.10;;;23.70;83.80;;;;;;5033256;28;20532;-64
2022/08/31 08:33:41;;;;;;;2.60;2.40;;;23.70;83.70;;;;;;5033333;28;20445;-63
2022/08/31 08:36:08;;;;;;;4.40;2.00;;;23.70;83.80;;;;;;5033154;28;20484;-61
2022/08/31 08:38:37;;;;;;;1.90;1.80;;;23.70;83.90;;;;;;5032949;28;20698;-61
2022/08/31 08:41:11;;;;;;;2.87;2.67;;;23.70;84.00;;;;;;5033259;28;20437;-63
2022/08/31 08:43:42;;;;;;;2.43;2.33;;;23.70;84.10;;;;;;5032934;28;20503;-64
2022/08/31 08:46:13;;;;;;;2.80;2.53;;;23.70;84.20;;;;;;5033152;28;20453;-62
2022/08/31 08:48:43;;;;;;;2.10;1.90;;;23.70;84.10;;;;;;5032715;28;20515;-63
2022/08/31 08:51:14;;;;;;;2.43;2.13;;;23.70;84.30;;;;;;5033003;28;20449;-63
2022/08/31 08:53:43;;;;;;;2.57;2.37;;;23.70;84.30;;;;;;5032773;28;20449;-63
2022/08/31 08:56:11;;;;;;;2.30;2.20;;;23.70;84.60;;;;;;5032942;28;20531;-63
2022/08/31 08:58:41;;;;;;;3.30;2.40;;;23.80;84.90;;;;;;5032380;28;20465;-62
2022/08/31 09:01:10;;;;;;;4.10;3.17;;;23.70;84.90;;;;;;5032882;28;20451;-63
2022/08/31 09:03:50;;;;;;;2.17;2.07;;;23.80;85.00;;;;;;5032638;28;20575;-63
2022/08/31 09:06:27;;;;;;;2.00;1.90;;;23.70;85.00;;;;;;5032607;28;20523;-62
2022/08/31 09:09:25;;;;;;;3.03;2.83;;;23.70;84.90;;;;;;5032234;28;20469;-63
2022/08/31 09:12:06;;;;;;;3.00;2.80;;;23.70;85.10;;;;;;5032617;28;20858;-63
2022/08/31 09:14:47;;;;;;;2.30;2.20;;;23.80;85.20;;;;;;5032807;28;20433;-63
2022/08/31 09:17:27;;;;;;;2.33;2.23;;;23.80;85.30;;;;;;5032284;28;21031;-63
2022/08/31 09:19:59;;;;;;;1.90;1.80;;;23.80;85.50;;;;;;5032144;28;21006;-63
2022/08/31 09:22:25;;;;;;;2.63;2.50;;;23.70;85.40;;;;;;5032282;28;20441;-63
2022/08/31 09:24:55;;;;;;;2.50;2.40;;;23.80;85.70;;;;;;5031284;28;20913;-63
2022/08/31 09:27:45;;;;;;;2.80;2.70;;;23.80;85.80;;;;;;5031836;28;21215;-63
2022/08/31 09:30:16;;;;;;;2.43;2.23;;;23.80;85.70;;;;;;5031935;28;20449;-62
2022/08/31 09:32:55;;;;;;;2.60;2.40;;;23.80;85.90;;;;;;5031967;28;20448;-63
2022/08/31 09:35:32;;;;;;;2.60;2.40;;;23.80;86.00;;;;;;5032038;28;20993;-61
2022/08/31 09:38:05;;;;;;;2.50;2.40;;;23.80;86.20;;;;;;5031713;28;20495;-64
2022/08/31 09:40:39;;;;;;;4.33;2.30;;;23.80;86.00;;;;;;5031745;28;20476;-63
2022/08/31 09:43:09;;;;;;;3.07;2.40;;;23.80;85.90;;;;;;5031813;28;20550;-63
2022/08/31 09:45:38;;;;;;;2.57;2.37;;;23.80;85.80;;;;;;5032165;28;20867;-63
2022/08/31 09:48:06;;;;;;;2.77;2.67;;;23.80;85.70;;;;;;5031820;28;21050;-61
2022/08/31 09:50:43;;;;;;;2.20;2.10;;;23.80;85.80;;;;;;5031622;28;20895;-63
2022/08/31 09:56:14;;;;;;;2.57;2.03;;;23.80;85.90;;;;;;5032159;28;20837;-62
2022/08/31 09:58:47;;;;;;;3.33;2.37;;;23.80;85.80;;;;;;5031392;28;20465;-63
2022/08/31 10:01:18;;;;;;;3.03;2.80;;;23.80;85.60;;;;;;5031809;28;20449;-63
2022/08/31 10:03:46;;;;;;;2.60;2.50;;;23.80;85.70;;;;;;5031626;28;20844;-62
2022/08/31 10:06:45;;;;;;;2.93;2.73;;;23.80;85.60;;;;;;5031604;28;20469;-63
2022/08/31 10:09:20;;;;;;;2.97;2.80;;;23.80;85.70;;;;;;5031557;28;20453;-63
2022/08/31 10:11:48;;;;;;;3.20;3.00;;;23.80;85.50;;;;;;5031565;28;20522;-62
2022/08/31 10:14:24;;;;;;;2.73;2.63;;;23.80;85.40;;;;;;5031659;28;20438;-63
2022/08/31 10:16:59;;;;;;;3.00;2.90;;;23.80;85.20;;;;;;5031883;28;20456;-63
2022/08/31 10:19:33;;;;;;;3.93;2.83;;;23.80;85.10;;;;;;5031417;28;20858;-63
2022/08/31 10:22:05;;;;;;;2.93;2.70;;;23.80;85.10;;;;;;5031673;28;20498;-64
2022/08/31 10:24:38;;;;;;;2.83;2.50;;;23.80;84.90;;;;;;5031388;28;20476;-63
2022/08/31 10:27:15;;;;;;;6.40;2.77;;;23.80;84.90;;;;;;5031305;28;20531;-62
2022/08/31 10:29:48;;;;;;;3.47;2.40;;;23.80;84.90;;;;;;5031295;28;20453;-63
2022/08/31 10:32:37;;;;;;;1.80;1.70;;;23.90;84.80;;;;;;5031384;28;20468;-63
2022/08/31 10:35:09;;;;;;;2.60;2.40;;;23.90;85.00;;;;;;5031973;28;20901;-63
2022/08/31 10:37:53;;;;;;;2.90;2.70;;;23.80;85.00;;;;;;5035230;28;20480;-63
2022/08/31 10:40:27;;;;;;;2.63;2.43;;;23.90;84.80;;;;;;5035345;28;20445;-63
2022/08/31 10:43:08;;;;;;;2.73;2.53;;;23.90;84.60;;;;;;5035264;28;20468;-63
2022/08/31 10:45:39;;;;;;;1.83;1.80;;;23.90;84.50;;;;;;5035262;28;20444;-63
2022/08/31 10:48:06;;;;;;;2.80;2.70;;;23.90;84.20;;;;;;5035328;28;20460;-63
2022/08/31 10:50:43;;;;;;;2.43;2.27;;;23.90;84.30;;;;;;5034957;28;20476;-63
2022/08/31 10:53:26;;;;;;;4.83;2.43;;;23.90;85.30;;;;;;5035112;28;20445;-63
2022/08/31 10:56:01;;;;;;;3.37;2.93;;;23.90;84.30;;;;;;5034975;28;20445;-63
2022/08/31 10:58:37;;;;;;;2.60;2.50;;;23.90;83.90;;;;;;5034718;28;20464;-63
2022/08/31 11:01:10;;;;;;;2.77;2.60;;;23.90;83.30;;;;;;5034971;28;20451;-63
2022/08/31 11:03:50;;;;;;;3.20;3.00;;;23.90;83.30;;;;;;5034859;28;20512;-63
2022/08/31 11:06:23;;;;;;;3.07;2.87;;;23.90;83.60;;;;;;5034809;28;21008;-62
2022/08/31 11:08:56;;;;;;;2.83;2.60;;;23.90;83.70;;;;;;5034637;28;20522;-63
2022/08/31 11:11:34;;;;;;;2.20;2.10;;;23.90;83.70;;;;;;5034762;28;20536;-62
2022/08/31 11:14:43;;;;;;;3.00;2.53;;;23.90;83.50;;;;;;5034763;28;20440;-63
2022/08/31 11:17:31;;;;;;;3.27;3.17;;;23.90;83.40;;;;;;4954163;28;20973;-61
2022/08/31 11:20:15;;;;;;;2.97;2.83;;;23.90;83.30;;;;;;4954135;29;20908;-61
2022/08/31 11:23:10;;;;;;;2.70;2.60;;;23.90;83.40;;;;;;5015925;28;20451;-63
2022/08/31 11:26:14;;;;;;;3.30;3.03;;;24.00;83.60;;;;;;5034656;28;20445;-62
2022/08/31 11:28:47;;;;;;;3.10;2.97;;;24.00;83.60;;;;;;5034249;28;20496;-63
2022/08/31 11:31:22;;;;;;;3.40;3.20;;;23.90;83.40;;;;;;5034228;28;20453;-63
2022/08/31 11:33:52;;;;;;;2.00;1.90;;;23.90;83.50;;;;;;5034433;28;20463;-63
2022/08/31 11:36:48;;;;;;;3.33;3.13;;;24.00;83.60;;;;;;5034262;28;20449;-63
2022/08/31 11:39:40;;;;;;;3.27;3.07;;;23.90;83.50;;;;;;5034114;28;20799;-64
2022/08/31 11:42:25;;;;;;;3.03;2.70;;;24.00;83.60;;;;;;5034220;28;20973;-63
2022/08/31 11:45:24;;;;;;;4.23;2.50;;;24.00;83.60;;;;;;5017463;28;20516;-63
2022/08/31 11:47:53;;;;;;;2.60;2.40;;;24.00;83.80;;;;;;5033207;28;20467;-63
2022/08/31 11:51:02;;;;;;;3.13;2.83;;;24.00;83.90;;;;;;5033692;28;20457;-63
2022/08/31 11:53:35;;;;;;;2.10;2.00;;;24.00;83.90;;;;;;5034025;28;20520;-63
2022/08/31 11:56:05;;;;;;;3.00;2.73;;;24.00;84.20;;;;;;5033923;28;20441;-62
2022/08/31 11:58:34;;;;;;;3.43;2.77;;;24.00;84.30;;;;;;5033882;28;20487;-62
2022/08/31 12:01:08;;;;;;;2.50;2.40;;;24.00;84.40;;;;;;5033860;28;20966;-61
2022/08/31 12:03:51;;;;;;;2.40;2.20;;;24.00;84.50;;;;;;5033737;28;20872;-63
2022/08/31 12:07:03;;;;;;;2.97;2.77;;;24.00;84.70;;;;;;5033848;28;20518;-63
2022/08/31 12:09:51;;;;;;;4.07;3.67;;;24.10;84.70;;;;;;5030092;28;20479;-63
2022/08/31 12:12:41;;;;;;;2.77;2.57;;;24.10;84.90;;;;;;5033706;28;20870;-64
2022/08/31 12:15:16;;;;;;;3.87;2.50;;;24.10;84.90;;;;;;5017425;28;20518;-63
2022/08/31 12:18:04;;;;;;;2.70;2.50;;;24.00;84.90;;;;;;5033454;28;20981;-63
2022/08/31 12:23:41;;;;;;;3.13;2.70;;;24.10;85.10;;;;;;5033371;28;20784;-63
2022/08/31 12:26:39;;;;;;;5.10;3.30;;;24.10;84.90;;;;;;5033267;28;20488;-62
2022/08/31 12:29:21;;;;;;;3.07;2.97;;;24.10;84.90;;;;;;5033145;28;20575;-63
2022/08/31 12:32:07;;;;;;;3.03;2.70;;;24.10;84.80;;;;;;5033212;28;20469;-63
2022/08/31 12:34:37;;;;;;;3.40;3.20;;;24.10;84.60;;;;;;5033350;28;20451;-63
2022/08/31 12:39:31;;;;;;;2.73;2.50;;;24.10;84.20;;;;;;5061700;22;20899;-69
2022/08/31 12:42:02;;;;;;;2.97;2.60;;;24.10;84.00;;;;;;5048957;28;20440;-69
2022/08/31 12:44:33;;;;;;;2.77;2.67;;;24.10;84.00;;;;;;5052835;28;20515;-69
2022/08/31 12:47:04;;;;;;;2.83;2.63;;;24.10;83.60;;;;;;5052943;28;20440;-69
2022/08/31 12:49:56;;;;;;;3.37;3.17;;;24.10;83.50;;;;;;5032746;28;20440;-69
2022/08/31 12:52:38;;;;;;;3.40;3.20;;;24.10;83.50;;;;;;5032860;28;20973;-69
2022/08/31 12:55:23;;;;;;;2.83;2.73;;;24.10;83.30;;;;;;5032847;28;20444;-69
2022/08/31 12:57:59;;;;;;;3.37;3.17;;;24.10;83.30;;;;;;5032657;28;20820;-69
2022/08/31 13:00:28;;;;;;;3.57;3.20;;;24.20;83.40;;;;;;5032645;28;20495;-68
2022/08/31 13:02:58;;;;;;;3.50;3.30;;;24.10;83.30;;;;;;5032822;28;20492;-69
2022/08/31 13:05:30;;;;;;;3.53;3.23;;;24.20;83.40;;;;;;5032588;28;20488;-68
2022/08/31 13:07:58;;;;;;;3.93;3.37;;;24.20;83.40;;;;;;5032393;28;20555;-69
2022/08/31 13:10:29;;;;;;;3.63;3.47;;;24.20;83.40;;;;;;5032307;28;20852;-69
2022/08/31 13:12:59;;;;;;;3.37;3.17;;;24.20;83.20;;;;;;5032467;28;20483;-69
2022/08/31 13:15:28;;;;;;;3.57;3.37;;;24.20;83.20;;;;;;5032355;28;20524;-69
2022/08/31 13:17:55;;;;;;;2.90;2.80;;;24.10;82.80;;;;;;5032367;28;20507;-69
2022/08/31 13:20:29;;;;;;;3.60;3.40;;;24.20;82.70;;;;;;5032241;28;20441;-69
2022/08/31 13:23:01;;;;;;;3.67;3.40;;;24.20;82.60;;;;;;5032313;28;20441;-70
2022/08/31 13:25:35;;;;;;;3.40;3.27;;;24.20;82.40;;;;;;5032412;28;20481;-69
2022/08/31 13:28:06;;;;;;;4.10;3.27;;;24.20;82.30;;;;;;5032525;28;20464;-69
2022/08/31 13:30:37;;;;;;;4.20;3.90;;;24.20;82.30;;;;;;5031969;28;20449;-69